Time;durP1;ratioP1;P1;durP2;ratioP2;P2;SDS_P1;SDS_P2;PMS_P1;PMS_P2;Temp;Humidity;BMP_temperature;BMP_pressure;BME280_temperature;BME280_humidity;BME280_pressure;Samples;Min_cycle;Max_cycle;Signal;HPM_P1;HPM_P2
2022/11/06 00:01:17;;;;;;;24.02;14.45;;;5.20;99.90;;;;;;7590629;19;20025;-73
2022/11/06 00:03:54;;;;;;;28.35;16.02;;;5.30;99.90;;;;;;7600034;19;20019;-72
2022/11/06 00:09:19;;;;;;;25.45;14.48;;;5.30;99.90;;;;;;7602821;19;20472;-73
2022/11/06 00:11:52;;;;;;;30.20;15.18;;;5.10;99.90;;;;;;7605666;19;20074;-72
2022/11/06 00:14:24;;;;;;;42.47;19.48;;;5.00;99.90;;;;;;7596861;19;20021;-73
2022/11/06 00:16:56;;;;;;;28.48;16.60;;;4.90;99.90;;;;;;7610399;19;20806;-73
2022/11/06 00:19:28;;;;;;;32.72;17.92;;;4.90;99.90;;;;;;7613572;19;20621;-72
2022/11/06 00:22:00;;;;;;;31.60;16.58;;;4.90;99.90;;;;;;7614749;19;20018;-74
2022/11/06 00:24:33;;;;;;;32.50;16.58;;;4.90;99.90;;;;;;7584954;19;20014;-73
2022/11/06 00:27:05;;;;;;;32.28;17.80;;;4.90;99.90;;;;;;7602460;19;20094;-73
2022/11/06 00:29:37;;;;;;;35.40;15.80;;;4.90;99.90;;;;;;7611144;19;20015;-73
2022/11/06 00:32:09;;;;;;;27.00;15.23;;;5.00;99.90;;;;;;7606508;19;20022;-73
2022/11/06 00:34:41;;;;;;;29.92;16.02;;;5.00;99.90;;;;;;7601408;19;20022;-73
2022/11/06 00:37:13;;;;;;;35.53;17.33;;;4.90;99.90;;;;;;7597032;19;20052;-72
2022/11/06 00:39:45;;;;;;;30.48;16.92;;;4.80;99.90;;;;;;7601641;19;20006;-73
2022/11/06 00:42:17;;;;;;;28.30;16.02;;;4.80;99.90;;;;;;7606637;19;20022;-73
2022/11/06 00:44:49;;;;;;;28.17;15.30;;;4.80;99.90;;;;;;6580358;19;9999982;-73
2022/11/06 00:47:22;;;;;;;25.55;14.93;;;4.70;99.90;;;;;;7599241;19;20018;-73
2022/11/06 00:49:54;;;;;;;24.70;14.65;;;4.70;99.90;;;;;;7605811;19;20020;-74
2022/11/06 00:52:28;;;;;;;28.80;15.23;;;4.70;99.90;;;;;;7610820;19;20017;-74
2022/11/06 00:55:00;;;;;;;30.95;16.00;;;4.70;99.90;;;;;;7600538;19;20010;-74
2022/11/06 00:57:32;;;;;;;36.20;16.70;;;4.60;99.90;;;;;;7609875;19;20021;-74
2022/11/06 01:00:06;;;;;;;24.55;13.77;;;4.60;99.90;;;;;;7609517;19;20925;-73
2022/11/06 01:02:38;;;;;;;22.80;13.50;;;4.50;99.90;;;;;;7605792;19;21735;-73
2022/11/06 01:05:11;;;;;;;29.02;15.18;;;4.50;99.90;;;;;;7607854;19;20089;-73
2022/11/06 01:07:43;;;;;;;27.63;14.05;;;4.50;99.90;;;;;;7606748;19;20026;-73
2022/11/06 01:10:15;;;;;;;25.40;13.38;;;4.60;99.90;;;;;;7606422;19;20030;-73
2022/11/06 01:12:48;;;;;;;25.67;13.68;;;4.50;99.90;;;;;;7605005;19;20018;-73
2022/11/06 01:15:20;;;;;;;32.83;15.95;;;4.50;99.90;;;;;;7603095;19;20034;-72
2022/11/06 01:17:52;;;;;;;23.70;13.40;;;4.50;99.90;;;;;;7608887;19;20054;-73
2022/11/06 01:20:24;;;;;;;21.85;13.25;;;4.50;99.90;;;;;;7607330;19;20494;-73
2022/11/06 01:22:56;;;;;;;27.77;14.95;;;4.50;99.90;;;;;;7612623;19;20022;-73
2022/11/06 01:25:28;;;;;;;24.48;13.40;;;4.50;99.90;;;;;;7600387;19;21142;-73
2022/11/06 01:28:00;;;;;;;27.73;14.02;;;4.60;99.90;;;;;;7614116;19;20018;-73
2022/11/06 01:30:36;;;;;;;24.00;13.50;;;4.50;99.90;;;;;;7596456;19;20048;-73
2022/11/06 01:33:08;;;;;;;23.73;14.00;;;4.60;99.90;;;;;;7610733;19;20019;-73
2022/11/06 01:35:47;;;;;;;30.48;15.93;;;4.50;99.90;;;;;;7613749;19;20022;-73
2022/11/06 01:38:19;;;;;;;28.63;14.98;;;4.60;99.90;;;;;;7609818;19;20017;-73
2022/11/06 01:40:52;;;;;;;23.08;13.45;;;4.50;99.90;;;;;;7604868;19;20581;-73
2022/11/06 01:43:45;;;;;;;27.85;14.05;;;4.50;99.90;;;;;;7610338;19;20017;-73
2022/11/06 01:46:18;;;;;;;27.92;14.50;;;4.50;99.90;;;;;;7601135;19;20710;-72
2022/11/06 01:48:54;;;;;;;21.55;12.50;;;4.50;99.90;;;;;;7604302;19;20014;-72
2022/11/06 01:51:29;;;;;;;21.73;11.63;;;4.50;99.90;;;;;;7606512;19;20011;-73
2022/11/06 01:54:07;;;;;;;21.70;11.27;;;4.50;99.90;;;;;;7599006;19;20467;-73
2022/11/06 01:56:41;;;;;;;20.10;11.32;;;4.50;99.90;;;;;;7605699;19;20126;-73
2022/11/06 01:59:16;;;;;;;23.70;12.20;;;4.50;99.90;;;;;;7604900;19;20126;-73
2022/11/06 02:01:50;;;;;;;17.98;10.85;;;4.50;99.90;;;;;;7609622;19;20021;-73
2022/11/06 02:04:25;;;;;;;19.27;10.45;;;4.40;99.90;;;;;;7600349;19;20029;-72
2022/11/06 02:06:58;;;;;;;18.63;10.77;;;4.40;99.90;;;;;;7608821;19;20475;-73
2022/11/06 02:09:32;;;;;;;25.77;11.68;;;4.40;99.90;;;;;;7609186;19;20644;-73
2022/11/06 02:12:14;;;;;;;20.95;12.07;;;4.40;99.90;;;;;;7612266;19;20015;-73
2022/11/06 02:15:16;;;;;;;21.90;11.35;;;4.40;99.90;;;;;;7601140;19;20377;-73
2022/11/06 02:18:20;;;;;;;22.35;12.45;;;4.30;99.90;;;;;;7608434;19;20323;-72
2022/11/06 02:21:11;;;;;;;;;;;4.20;99.90;;;;;;7604626;19;20014;-73
2022/11/06 02:24:11;;;;;;;17.08;9.93;;;4.20;99.90;;;;;;7585263;19;20899;-73
2022/11/06 02:27:02;;;;;;;17.23;10.07;;;4.10;99.90;;;;;;7593965;19;20021;-73
2022/11/06 02:29:44;;;;;;;21.35;11.48;;;4.20;99.90;;;;;;7588818;19;20029;-73
2022/11/06 02:32:27;;;;;;;18.35;10.07;;;4.10;99.90;;;;;;7607933;19;20897;-73
2022/11/06 02:35:04;;;;;;;18.40;10.82;;;4.00;99.90;;;;;;7598357;19;20022;-73
2022/11/06 02:37:39;;;;;;;19.85;10.30;;;4.00;99.90;;;;;;7611986;19;20018;-73
2022/11/06 02:40:13;;;;;;;14.48;8.95;;;4.00;99.90;;;;;;7602056;19;20023;-74
2022/11/06 02:42:49;;;;;;;15.73;9.93;;;4.00;99.90;;;;;;7616207;19;20077;-73
2022/11/06 02:45:24;;;;;;;16.30;9.18;;;4.00;99.90;;;;;;7607683;19;20528;-73
2022/11/06 02:47:57;;;;;;;17.88;9.48;;;4.00;99.90;;;;;;7596798;19;20542;-73
2022/11/06 02:50:34;;;;;;;16.05;8.55;;;3.90;99.90;;;;;;7609285;19;20014;-73
2022/11/06 02:53:09;;;;;;;17.23;8.93;;;3.90;99.90;;;;;;7605728;19;20010;-73
2022/11/06 02:55:47;;;;;;;16.13;9.73;;;3.90;99.90;;;;;;7600975;19;20025;-73
2022/11/06 02:58:23;;;;;;;19.85;10.68;;;3.90;99.90;;;;;;7595224;19;20015;-73
2022/11/06 03:01:05;;;;;;;14.88;8.73;;;3.70;99.90;;;;;;7595525;19;20011;-73
2022/11/06 03:03:42;;;;;;;14.85;8.18;;;3.70;99.90;;;;;;7601795;19;20019;-73
2022/11/06 03:06:30;;;;;;;11.75;7.38;;;3.60;99.90;;;;;;7602881;19;20021;-73
2022/11/06 03:09:08;;;;;;;13.77;8.27;;;3.60;99.90;;;;;;7604345;19;20018;-73
2022/11/06 03:11:40;;;;;;;12.98;7.40;;;3.60;99.90;;;;;;7603060;19;20651;-72
2022/11/06 03:14:36;;;;;;;14.98;8.57;;;3.60;99.90;;;;;;7608032;19;20105;-73
2022/11/06 03:17:25;;;;;;;17.65;9.13;;;3.50;99.90;;;;;;7602345;19;20048;-73
2022/11/06 03:20:07;;;;;;;13.40;8.23;;;3.50;99.90;;;;;;7609862;19;20010;-73
2022/11/06 03:23:00;;;;;;;16.58;9.10;;;3.50;99.90;;;;;;7615422;19;20011;-73
2022/11/06 03:25:58;;;;;;;14.93;8.98;;;3.40;99.90;;;;;;7599420;19;20022;-73
2022/11/06 03:28:46;;;;;;;22.83;10.38;;;3.20;99.90;;;;;;7609862;19;20028;-73
2022/11/06 03:31:29;;;;;;;11.98;7.60;;;3.30;99.90;;;;;;7611134;19;20029;-72
2022/11/06 03:34:06;;;;;;;12.05;7.55;;;3.30;99.90;;;;;;7615276;19;20026;-72
2022/11/06 03:36:46;;;;;;;15.38;8.23;;;3.30;99.90;;;;;;7614950;19;20010;-72
2022/11/06 03:39:26;;;;;;;12.80;7.93;;;3.30;99.90;;;;;;7610307;19;20022;-72
2022/11/06 03:42:04;;;;;;;13.23;7.88;;;3.30;99.90;;;;;;7597866;19;20506;-73
2022/11/06 03:44:42;;;;;;;16.42;8.13;;;3.20;99.90;;;;;;7607915;19;20019;-72
2022/11/06 03:47:19;;;;;;;13.45;8.48;;;3.20;99.90;;;;;;7586257;19;20014;-73
2022/11/06 03:50:16;;;;;;;12.27;6.97;;;3.20;99.90;;;;;;7607980;19;20014;-73
2022/11/06 03:53:15;;;;;;;12.80;7.95;;;3.10;99.90;;;;;;7603807;19;20010;-72
2022/11/06 03:55:53;;;;;;;16.02;8.57;;;3.20;99.90;;;;;;7606443;19;20030;-72
2022/11/06 03:58:31;;;;;;;18.63;10.05;;;3.10;99.90;;;;;;7601862;19;20018;-73
2022/11/06 04:01:07;;;;;;;24.35;11.65;;;2.90;99.90;;;;;;7604932;19;20034;-73
2022/11/06 04:03:55;;;;;;;19.33;9.52;;;2.80;99.90;;;;;;7614748;19;20018;-72
2022/11/06 04:06:41;;;;;;;16.90;9.20;;;2.80;99.90;;;;;;7609762;19;20052;-73
2022/11/06 04:15:02;;;;;;;15.20;7.97;;;2.90;99.90;;;;;;7607063;19;20014;-73
2022/11/06 04:17:35;;;;;;;15.80;8.05;;;2.90;99.90;;;;;;7592990;19;20049;-72
2022/11/06 04:21:20;;;;;;;15.73;8.40;;;2.90;99.90;;;;;;7592521;19;20011;-72
2022/11/06 04:23:18;;;;;;;15.25;8.52;;;2.90;99.90;;;;;;7609623;19;20014;-73
2022/11/06 04:26:35;;;;;;;19.15;9.18;;;2.80;99.90;;;;;;7594727;19;20045;-73
2022/11/06 04:29:40;;;;;;;13.32;8.40;;;2.80;99.90;;;;;;7601152;19;20018;-73
2022/11/06 04:32:21;;;;;;;16.88;9.20;;;2.80;99.90;;;;;;7605391;19;20130;-72
2022/11/06 04:35:11;;;;;;;19.30;9.52;;;3.00;99.90;;;;;;7609751;19;20040;-73
2022/11/06 04:38:09;;;;;;;16.90;9.38;;;2.90;99.90;;;;;;7608749;19;20097;-73
2022/11/06 04:41:18;;;;;;;18.98;11.18;;;2.70;99.90;;;;;;7600415;19;20709;-72
2022/11/06 04:44:16;;;;;;;19.20;10.82;;;2.60;99.90;;;;;;7612654;19;20018;-72
2022/11/06 04:46:55;;;;;;;11.90;7.68;;;2.60;99.90;;;;;;7602251;19;20017;-73
2022/11/06 04:49:32;;;;;;;14.73;8.32;;;2.70;99.90;;;;;;7611834;19;20893;-73
2022/11/06 04:52:08;;;;;;;19.83;8.93;;;2.70;99.90;;;;;;7610676;19;20022;-72
2022/11/06 04:54:41;;;;;;;15.65;8.70;;;2.70;99.90;;;;;;7591360;19;20003;-72
2022/11/06 04:57:13;;;;;;;14.15;8.20;;;2.70;99.90;;;;;;7604382;19;20029;-73
2022/11/06 04:59:45;;;;;;;15.25;8.50;;;2.70;99.90;;;;;;7606949;19;20018;-72
2022/11/06 05:02:17;;;;;;;12.48;7.60;;;2.70;99.90;;;;;;7598097;19;20108;-73
2022/11/06 05:04:50;;;;;;;17.48;9.88;;;2.70;99.90;;;;;;7609555;19;20014;-72
2022/11/06 05:07:22;;;;;;;12.65;7.43;;;2.60;99.90;;;;;;7607351;19;20028;-73
2022/11/06 05:09:54;;;;;;;12.55;7.43;;;2.50;99.90;;;;;;7599410;19;20458;-73
2022/11/06 05:12:26;;;;;;;13.48;7.75;;;2.60;99.90;;;;;;7593732;19;20019;-73
2022/11/06 05:14:58;;;;;;;14.80;8.77;;;2.60;99.90;;;;;;7597625;19;21094;-72
2022/11/06 05:17:30;;;;;;;14.07;7.90;;;2.50;99.90;;;;;;7609500;19;20014;-73
2022/11/06 05:20:07;;;;;;;13.13;7.38;;;2.50;99.90;;;;;;7606385;19;20120;-73
2022/11/06 05:25:34;;;;;;;21.17;11.73;;;2.50;99.90;;;;;;7614686;19;20014;-72
2022/11/06 05:28:07;;;;;;;13.65;8.60;;;2.40;99.90;;;;;;7609723;19;20050;-72
2022/11/06 05:30:39;;;;;;;15.27;8.85;;;2.40;99.90;;;;;;7615022;19;20506;-73
2022/11/06 05:33:11;;;;;;;17.42;9.00;;;2.40;99.90;;;;;;7615715;19;20011;-72
2022/11/06 05:35:43;;;;;;;16.98;8.30;;;2.30;99.90;;;;;;7606814;19;20018;-72
2022/11/06 05:38:16;;;;;;;14.77;7.80;;;2.30;99.90;;;;;;7604338;19;20331;-72
2022/11/06 05:40:48;;;;;;;14.53;7.97;;;2.20;99.90;;;;;;7589312;19;20052;-72
2022/11/06 05:43:20;;;;;;;11.35;6.88;;;2.20;99.90;;;;;;7598429;19;20029;-72
2022/11/06 05:45:53;;;;;;;15.65;8.10;;;2.20;99.90;;;;;;7597094;19;20018;-72
2022/11/06 05:48:26;;;;;;;17.30;8.23;;;2.20;99.90;;;;;;7578009;19;20139;-73
2022/11/06 05:51:05;;;;;;;20.25;9.48;;;2.20;99.90;;;;;;7594894;19;20018;-72
2022/11/06 05:53:37;;;;;;;11.95;7.18;;;2.10;99.90;;;;;;7593901;19;20031;-73
2022/11/06 05:56:09;;;;;;;13.27;8.05;;;2.20;99.90;;;;;;7589621;19;20018;-73
2022/11/06 05:58:42;;;;;;;18.63;9.65;;;2.20;99.90;;;;;;7586712;19;20018;-72
2022/11/06 06:01:14;;;;;;;14.80;7.22;;;2.20;99.90;;;;;;7597824;19;20056;-72
2022/11/06 06:03:46;;;;;;;15.50;9.38;;;2.10;99.90;;;;;;7594149;19;20019;-73
2022/11/06 06:06:19;;;;;;;13.88;8.00;;;2.20;99.90;;;;;;7603014;19;20014;-72
2022/11/06 06:08:51;;;;;;;85.65;11.02;;;2.30;99.90;;;;;;7582982;19;20015;-73
2022/11/06 06:11:23;;;;;;;41.75;9.75;;;2.40;99.90;;;;;;7613731;19;20449;-72
2022/11/06 06:13:55;;;;;;;36.80;9.23;;;2.40;99.90;;;;;;7591930;19;20018;-72
2022/11/06 06:16:28;;;;;;;30.95;10.02;;;2.40;99.90;;;;;;7580507;19;20048;-73
2022/11/06 06:19:00;;;;;;;33.95;9.73;;;2.30;99.90;;;;;;7583881;19;20090;-73
2022/11/06 06:21:32;;;;;;;16.42;8.65;;;2.40;99.90;;;;;;7615551;19;20032;-73
2022/11/06 06:24:05;;;;;;;13.07;7.82;;;2.40;99.90;;;;;;7610911;19;20015;-73
2022/11/06 06:26:37;;;;;;;17.98;9.20;;;2.40;99.90;;;;;;7608685;19;20529;-73
2022/11/06 06:29:09;;;;;;;36.13;8.82;;;2.50;99.90;;;;;;7592224;19;20106;-72
2022/11/06 06:31:42;;;;;;;21.40;9.10;;;2.50;99.90;;;;;;7583824;19;21149;-73
2022/11/06 06:34:14;;;;;;;42.97;12.93;;;2.50;99.90;;;;;;7597392;19;20026;-73
2022/11/06 06:36:51;;;;;;;18.95;9.30;;;2.50;99.90;;;;;;7593576;19;20343;-72
2022/11/06 06:39:23;;;;;;;19.70;8.85;;;2.50;99.90;;;;;;7604333;19;20018;-71
2022/11/06 06:41:55;;;;;;;21.02;8.98;;;2.50;99.90;;;;;;7607896;19;20010;-72
2022/11/06 06:44:28;;;;;;;12.60;7.82;;;2.50;99.90;;;;;;7587269;19;20018;-72
2022/11/06 06:47:00;;;;;;;12.80;8.10;;;2.60;99.90;;;;;;7605346;19;21798;-72
2022/11/06 06:49:32;;;;;;;20.60;10.82;;;2.60;99.90;;;;;;7611637;19;20112;-72
2022/11/06 06:52:04;;;;;;;29.23;12.68;;;2.70;99.90;;;;;;7605768;19;20014;-73
2022/11/06 06:54:36;;;;;;;17.67;10.77;;;2.70;99.90;;;;;;7602005;19;20449;-73
2022/11/06 06:57:08;;;;;;;19.85;11.15;;;2.70;99.90;;;;;;7583121;19;21041;-72
2022/11/06 06:59:41;;;;;;;21.95;11.30;;;2.80;99.90;;;;;;7610108;19;20022;-72
2022/11/06 07:02:13;;;;;;;25.30;12.20;;;2.90;99.90;;;;;;7601376;19;20392;-72
2022/11/06 07:04:45;;;;;;;27.63;12.65;;;3.00;99.90;;;;;;7594272;19;20021;-74
2022/11/06 07:07:17;;;;;;;29.23;14.70;;;3.10;99.90;;;;;;7584788;19;20018;-72
2022/11/06 07:09:51;;;;;;;47.80;16.73;;;3.10;99.90;;;;;;7592741;19;20125;-72
2022/11/06 07:12:23;;;;;;;31.73;13.75;;;3.30;99.90;;;;;;7605350;19;20487;-72
2022/11/06 07:14:55;;;;;;;41.13;16.83;;;3.30;99.90;;;;;;7595675;19;20014;-73
2022/11/06 07:17:27;;;;;;;34.50;15.95;;;3.50;99.90;;;;;;7603435;19;20021;-72
2022/11/06 07:19:59;;;;;;;29.98;15.18;;;3.60;99.90;;;;;;7594546;19;20010;-73
2022/11/06 07:22:32;;;;;;;28.63;14.30;;;3.70;99.90;;;;;;7604812;19;20052;-71
2022/11/06 07:25:08;;;;;;;31.80;15.38;;;3.80;99.90;;;;;;7594034;19;20014;-72
2022/11/06 07:27:40;;;;;;;25.30;15.18;;;3.90;99.90;;;;;;7582428;19;20033;-72
2022/11/06 07:30:12;;;;;;;26.40;14.90;;;4.00;99.90;;;;;;7598073;19;20102;-72
2022/11/06 07:32:45;;;;;;;27.10;14.73;;;4.10;99.90;;;;;;7591891;19;20015;-72
2022/11/06 07:35:17;;;;;;;25.50;13.98;;;4.20;99.90;;;;;;7606054;19;20018;-72
2022/11/06 07:37:49;;;;;;;28.65;15.75;;;4.20;99.90;;;;;;7604046;19;20010;-72
2022/11/06 07:40:21;;;;;;;27.15;15.25;;;4.30;99.90;;;;;;7599310;19;20052;-72
2022/11/06 07:42:53;;;;;;;34.80;17.15;;;4.40;99.90;;;;;;7610093;19;20014;-73
2022/11/06 07:45:25;;;;;;;25.52;14.32;;;4.50;99.90;;;;;;7596701;19;20847;-72
2022/11/06 07:47:58;;;;;;;31.02;16.88;;;4.60;99.90;;;;;;7593434;19;20014;-72
2022/11/06 07:50:31;;;;;;;27.92;15.45;;;4.70;99.90;;;;;;7597834;19;20519;-73
2022/11/06 07:53:03;;;;;;;36.85;19.02;;;4.70;99.90;;;;;;7593200;19;20013;-72
2022/11/06 07:55:35;;;;;;;33.83;18.10;;;4.80;99.90;;;;;;7577880;19;20018;-72
2022/11/06 07:58:13;;;;;;;42.53;19.88;;;4.80;99.90;;;;;;7577606;19;20045;-72
2022/11/06 08:00:54;;;;;;;31.02;17.60;;;4.90;99.90;;;;;;7597959;19;20019;-73
2022/11/06 08:03:28;;;;;;;40.60;21.08;;;5.00;99.90;;;;;;7609143;19;20728;-72
2022/11/06 08:06:06;;;;;;;37.42;20.00;;;5.10;99.90;;;;;;7591708;19;20045;-72
2022/11/06 08:08:38;;;;;;;34.45;18.48;;;5.20;99.90;;;;;;7596980;19;21339;-72
2022/11/06 08:11:11;;;;;;;40.63;20.88;;;5.30;99.90;;;;;;7588248;19;20014;-72
2022/11/06 08:13:43;;;;;;;36.93;18.50;;;5.40;99.90;;;;;;7581136;19;20023;-73
2022/11/06 08:16:15;;;;;;;34.40;18.95;;;5.50;99.90;;;;;;7573630;19;20018;-72
2022/11/06 08:18:47;;;;;;;33.95;18.40;;;5.60;99.90;;;;;;7578999;19;20011;-72
2022/11/06 08:21:20;;;;;;;30.98;17.13;;;5.70;99.90;;;;;;7570759;19;20019;-72
2022/11/06 08:23:52;;;;;;;32.78;17.95;;;5.80;99.90;;;;;;7566689;19;20010;-72
2022/11/06 08:26:25;;;;;;;33.25;17.60;;;5.90;99.90;;;;;;7577804;19;20082;-72
2022/11/06 08:28:57;;;;;;;30.58;17.23;;;6.00;99.90;;;;;;7582905;19;20016;-72
2022/11/06 08:31:30;;;;;;;30.52;16.50;;;6.10;99.90;;;;;;7573481;19;20053;-72
2022/11/06 08:34:02;;;;;;;28.15;15.88;;;6.10;99.90;;;;;;7592342;19;20022;-72
2022/11/06 08:36:45;;;;;;;27.50;15.60;;;6.20;99.90;;;;;;7587815;19;20022;-72
2022/11/06 08:39:20;;;;;;;23.05;13.13;;;6.20;99.90;;;;;;7581229;19;20006;-72
2022/11/06 08:41:52;;;;;;;21.52;12.85;;;6.30;99.90;;;;;;7575717;19;21283;-72
2022/11/06 08:44:24;;;;;;;27.67;14.68;;;6.50;99.90;;;;;;7576181;19;20010;-73
2022/11/06 08:46:56;;;;;;;23.65;12.98;;;6.40;99.90;;;;;;7593044;19;20019;-73
2022/11/06 08:49:29;;;;;;;24.50;13.82;;;6.50;99.90;;;;;;7585249;19;20018;-73
2022/11/06 08:52:01;;;;;;;20.08;11.40;;;6.50;99.90;;;;;;7576481;19;20014;-72
2022/11/06 08:54:33;;;;;;;18.48;11.77;;;6.60;99.90;;;;;;7578307;19;20022;-74
2022/11/06 08:57:05;;;;;;;18.08;10.80;;;6.70;99.90;;;;;;7590171;19;20011;-72
2022/11/06 08:59:38;;;;;;;21.52;12.63;;;6.70;99.90;;;;;;7581722;19;20014;-72
2022/11/06 09:02:12;;;;;;;21.23;12.63;;;6.80;99.90;;;;;;7569792;19;20045;-72
2022/11/06 09:04:44;;;;;;;20.48;11.63;;;6.90;99.90;;;;;;7586160;19;20698;-73
2022/11/06 09:07:17;;;;;;;16.30;10.57;;;6.90;99.90;;;;;;7581113;19;20025;-73
2022/11/06 09:09:49;;;;;;;17.20;11.02;;;6.90;99.90;;;;;;7588868;19;20658;-72
2022/11/06 09:12:21;;;;;;;17.05;10.57;;;7.00;99.90;;;;;;7572265;19;20075;-73
2022/11/06 09:14:53;;;;;;;17.55;10.05;;;7.00;99.90;;;;;;7573519;19;20049;-72
2022/11/06 09:17:25;;;;;;;15.88;10.32;;;7.00;99.90;;;;;;7582361;19;20011;-72
2022/11/06 09:19:57;;;;;;;13.27;8.88;;;7.10;99.90;;;;;;7582228;19;20016;-72
2022/11/06 09:22:29;;;;;;;14.18;9.55;;;7.20;99.90;;;;;;7572738;19;20021;-72
2022/11/06 09:25:02;;;;;;;12.93;8.82;;;7.30;99.90;;;;;;7565505;19;20502;-73
2022/11/06 09:27:45;;;;;;;12.60;8.65;;;7.40;99.90;;;;;;7592771;19;20018;-73
2022/11/06 09:30:20;;;;;;;17.27;9.75;;;7.50;99.90;;;;;;7586428;19;20049;-72
2022/11/06 09:32:55;;;;;;;13.77;9.15;;;7.60;99.90;;;;;;7594579;19;20040;-73
2022/11/06 09:35:30;;;;;;;18.45;12.02;;;7.70;99.90;;;;;;7571063;19;20747;-72
2022/11/06 09:38:10;;;;;;;21.80;12.57;;;7.70;99.90;;;;;;7570398;19;20082;-73
2022/11/06 09:40:55;;;;;;;19.15;11.90;;;7.70;99.90;;;;;;7576064;19;20085;-72
2022/11/06 09:43:44;;;;;;;17.70;10.43;;;7.70;99.90;;;;;;7577468;19;20015;-72
2022/11/06 09:46:45;;;;;;;16.63;10.25;;;7.70;99.90;;;;;;7573664;19;20014;-72
2022/11/06 09:49:29;;;;;;;18.65;10.48;;;7.60;99.90;;;;;;7564009;19;20011;-72
2022/11/06 09:52:12;;;;;;;17.90;10.05;;;7.70;99.90;;;;;;7582252;19;20010;-72
2022/11/06 09:54:55;;;;;;;14.90;10.00;;;7.70;99.90;;;;;;7567133;19;20035;-72
2022/11/06 09:57:33;;;;;;;13.52;8.77;;;7.70;99.90;;;;;;7596708;19;20355;-72
2022/11/06 10:00:07;;;;;;;13.05;8.75;;;7.80;99.90;;;;;;7581855;19;20018;-73
2022/11/06 10:02:46;;;;;;;13.10;8.75;;;7.90;99.90;;;;;;7596516;19;20045;-72
2022/11/06 10:05:29;;;;;;;13.07;8.43;;;8.00;99.90;;;;;;7582529;19;20084;-73
2022/11/06 10:08:11;;;;;;;11.23;7.65;;;8.10;99.90;;;;;;7575941;19;20007;-72
2022/11/06 10:11:06;;;;;;;10.95;7.47;;;8.20;99.90;;;;;;7582884;19;20022;-72
2022/11/06 10:14:02;;;;;;;13.88;8.40;;;8.40;99.90;;;;;;7570840;19;20018;-73
2022/11/06 10:16:48;;;;;;;13.05;8.55;;;8.40;99.90;;;;;;7583079;19;20029;-73
2022/11/06 10:19:35;;;;;;;11.13;7.95;;;8.40;99.90;;;;;;7590743;19;20056;-72
2022/11/06 10:22:15;;;;;;;9.77;6.82;;;8.50;99.90;;;;;;7597462;19;20010;-73
2022/11/06 10:25:06;;;;;;;11.10;7.00;;;8.60;99.90;;;;;;7563504;19;21128;-73
2022/11/06 10:27:42;;;;;;;8.68;6.45;;;8.60;99.90;;;;;;7553742;19;20014;-73
2022/11/06 10:30:17;;;;;;;9.00;6.13;;;8.70;99.90;;;;;;7558738;19;20033;-72
2022/11/06 10:33:25;;;;;;;8.88;6.05;;;8.70;99.90;;;;;;7550948;19;20018;-73
2022/11/06 10:36:04;;;;;;;8.73;6.03;;;8.70;99.90;;;;;;7581609;19;20117;-72
2022/11/06 10:38:39;;;;;;;11.57;7.65;;;8.80;99.90;;;;;;7591698;19;20040;-73
2022/11/06 10:41:18;;;;;;;8.35;5.50;;;8.90;99.90;;;;;;7598709;19;20011;-73
2022/11/06 10:43:56;;;;;;;13.00;5.95;;;9.00;99.90;;;;;;7606478;19;20330;-72
2022/11/06 10:46:45;;;;;;;8.60;6.10;;;8.90;99.90;;;;;;7598783;19;20039;-73
2022/11/06 10:49:38;;;;;;;8.13;5.88;;;9.10;99.90;;;;;;7592175;19;21494;-72
2022/11/06 10:52:19;;;;;;;7.30;5.23;;;9.20;99.90;;;;;;7616185;19;20494;-72
2022/11/06 10:55:35;;;;;;;8.10;5.40;;;9.10;99.90;;;;;;7608756;19;20025;-73
2022/11/06 10:58:12;;;;;;;7.75;5.57;;;9.30;99.90;;;;;;7610458;19;20011;-72
2022/11/06 11:00:45;;;;;;;7.32;5.50;;;9.40;99.90;;;;;;7612628;19;20018;-72
2022/11/06 11:03:45;;;;;;;7.55;5.57;;;9.50;99.90;;;;;;7599873;19;20368;-72
2022/11/06 11:06:17;;;;;;;10.20;6.93;;;9.70;99.90;;;;;;7617053;19;20018;-73
2022/11/06 11:08:51;;;;;;;10.45;7.63;;;10.00;99.90;;;;;;7612008;19;20052;-72
2022/11/06 11:11:27;;;;;;;13.38;9.23;;;10.50;99.90;;;;;;7608528;19;20016;-72
2022/11/06 11:13:59;;;;;;;12.95;8.85;;;10.70;99.90;;;;;;7591943;19;20026;-74
2022/11/06 11:16:36;;;;;;;12.30;8.55;;;11.60;99.90;;;;;;7600074;19;20502;-72
2022/11/06 11:19:40;;;;;;;13.40;9.55;;;12.90;98.40;;;;;;7587144;19;20018;-72
2022/11/06 11:22:15;;;;;;;11.82;8.43;;;14.60;92.30;;;;;;7588822;19;20408;-73
2022/11/06 11:25:05;;;;;;;11.07;7.75;;;15.20;84.60;;;;;;7591387;19;20060;-72
2022/11/06 11:27:43;;;;;;;10.18;6.90;;;14.50;86.30;;;;;;7595612;19;20017;-73
2022/11/06 11:30:21;;;;;;;10.98;6.65;;;14.00;89.30;;;;;;7589805;19;20113;-73
2022/11/06 11:32:55;;;;;;;8.00;6.00;;;14.60;86.50;;;;;;7589524;19;20125;-73
2022/11/06 11:35:29;;;;;;;8.73;6.20;;;16.20;80.90;;;;;;7596523;19;20053;-73
2022/11/06 11:38:12;;;;;;;7.45;5.45;;;17.10;76.00;;;;;;7580784;19;20006;-73
2022/11/06 11:40:45;;;;;;;6.22;5.03;;;17.70;73.50;;;;;;7602457;19;20010;-73
2022/11/06 11:43:22;;;;;;;7.83;5.43;;;18.70;69.50;;;;;;7601905;19;20608;-73
2022/11/06 11:46:08;;;;;;;7.57;5.60;;;17.10;72.00;;;;;;7576368;19;20869;-73
2022/11/06 11:48:47;;;;;;;7.40;5.28;;;15.50;76.10;;;;;;7595187;19;20915;-73
2022/11/06 11:51:38;;;;;;;6.15;4.97;;;14.30;81.10;;;;;;7585906;19;20010;-72
2022/11/06 11:54:10;;;;;;;7.03;5.07;;;13.00;86.60;;;;;;7590080;19;20010;-73
2022/11/06 11:56:56;;;;;;;9.73;6.15;;;12.30;90.50;;;;;;7571984;19;20484;-73
2022/11/06 11:59:47;;;;;;;6.82;5.13;;;11.70;92.30;;;;;;7598996;19;20474;-73
2022/11/06 12:02:39;;;;;;;6.03;4.78;;;11.70;93.50;;;;;;7605503;19;20010;-73
2022/11/06 12:05:15;;;;;;;9.13;4.95;;;11.50;94.20;;;;;;7592367;19;20039;-74
2022/11/06 12:07:57;;;;;;;6.10;4.82;;;11.40;95.40;;;;;;7593563;19;20026;-73
2022/11/06 12:10:33;;;;;;;6.93;5.35;;;11.80;95.70;;;;;;7598663;19;20014;-73
2022/11/06 12:13:18;;;;;;;6.88;5.07;;;11.80;96.00;;;;;;7598894;19;20010;-73
2022/11/06 12:16:18;;;;;;;6.65;4.88;;;11.70;96.70;;;;;;7587651;19;20018;-73
2022/11/06 12:18:53;;;;;;;6.35;4.45;;;12.20;96.50;;;;;;7586109;19;20014;-73
2022/11/06 12:21:35;;;;;;;7.60;5.07;;;11.90;96.60;;;;;;7573726;19;20529;-74
2022/11/06 12:24:40;;;;;;;7.40;5.15;;;11.90;97.30;;;;;;7551675;19;20085;-74
2022/11/06 12:27:23;;;;;;;5.70;4.50;;;12.10;96.20;;;;;;7539924;19;20022;-74
2022/11/06 12:30:06;;;;;;;6.18;4.68;;;11.90;96.80;;;;;;7587105;19;20024;-72
2022/11/06 12:32:56;;;;;;;4.63;4.07;;;11.70;97.70;;;;;;7593796;19;20117;-72
2022/11/06 12:35:40;;;;;;;5.38;4.22;;;11.50;98.50;;;;;;7588900;19;20014;-71
2022/11/06 12:38:24;;;;;;;5.47;4.00;;;11.50;98.80;;;;;;7587714;19;20018;-72
2022/11/06 12:41:05;;;;;;;5.05;3.97;;;11.60;97.90;;;;;;7590333;19;20081;-72
2022/11/06 12:43:48;;;;;;;5.30;4.25;;;11.60;97.60;;;;;;7578138;19;20110;-71
2022/11/06 12:46:51;;;;;;;4.60;3.97;;;11.80;96.90;;;;;;7591869;19;20014;-71
2022/11/06 12:49:26;;;;;;;5.40;4.15;;;11.60;97.30;;;;;;7594861;19;20086;-71
2022/11/06 12:52:07;;;;;;;5.70;4.45;;;11.70;97.60;;;;;;7601539;19;20020;-71
2022/11/06 12:55:08;;;;;;;6.57;4.20;;;11.60;97.40;;;;;;7582457;19;20489;-71
2022/11/06 12:57:59;;;;;;;4.43;4.03;;;11.70;96.90;;;;;;7590924;19;20048;-71
2022/11/06 13:00:48;;;;;;;5.78;4.40;;;12.30;95.60;;;;;;7579144;19;20390;-71
2022/11/06 13:03:26;;;;;;;5.18;3.97;;;12.60;94.70;;;;;;7591989;19;20107;-71
2022/11/06 13:06:24;;;;;;;4.95;4.03;;;12.80;94.70;;;;;;7605409;19;20098;-71
2022/11/06 13:09:23;;;;;;;6.95;4.45;;;12.60;94.80;;;;;;7613405;19;20046;-71
2022/11/06 13:12:17;;;;;;;5.38;4.40;;;12.40;95.20;;;;;;7587172;19;20014;-71
2022/11/06 13:15:19;;;;;;;5.47;4.32;;;12.00;95.40;;;;;;7588101;19;20992;-71
2022/11/06 13:18:14;;;;;;;7.18;3.97;;;11.70;96.40;;;;;;7602234;19;20025;-70
2022/11/06 13:21:19;;;;;;;5.53;3.97;;;11.40;97.80;;;;;;7592786;19;20335;-71
2022/11/06 13:23:57;;;;;;;4.05;3.45;;;11.40;98.80;;;;;;7586051;19;20591;-71
2022/11/06 13:26:37;;;;;;;5.32;4.10;;;11.70;97.50;;;;;;7596605;19;20006;-71
2022/11/06 13:29:13;;;;;;;4.45;3.53;;;11.70;96.90;;;;;;7592448;19;20814;-71
2022/11/06 13:31:58;;;;;;;4.85;3.88;;;11.60;96.90;;;;;;7603284;19;20379;-71
2022/11/06 13:34:34;;;;;;;4.28;3.70;;;11.60;96.90;;;;;;7608199;19;20037;-71
2022/11/06 13:37:13;;;;;;;4.78;3.65;;;11.50;97.20;;;;;;7580025;19;21038;-71
2022/11/06 13:39:48;;;;;;;4.57;3.40;;;11.80;97.00;;;;;;7588548;19;20018;-71
2022/11/06 13:42:33;;;;;;;4.60;3.75;;;11.80;97.10;;;;;;7582083;19;20014;-71
2022/11/06 13:45:08;;;;;;;4.15;3.60;;;11.70;96.60;;;;;;7561302;19;21600;-71
2022/11/06 13:47:52;;;;;;;3.65;3.10;;;11.50;97.00;;;;;;7583852;19;20639;-71
2022/11/06 13:50:43;;;;;;;3.85;3.25;;;11.90;96.70;;;;;;7591214;19;20014;-71
2022/11/06 13:53:21;;;;;;;4.25;3.03;;;12.30;94.90;;;;;;7603600;19;20033;-71